createdAt,value
2019-02-09T00:01:03.140Z,4.60
2019-02-09T00:03:32.007Z,4.50
2019-02-09T00:06:01.318Z,4.50
2019-02-09T00:08:30.175Z,4.50
2019-02-09T00:10:59.302Z,4.40
2019-02-09T00:13:28.055Z,4.40
2019-02-09T00:15:57.091Z,4.40
2019-02-09T00:18:26.223Z,4.40
2019-02-09T00:20:55.380Z,4.30
2019-02-09T00:23:24.122Z,4.30
2019-02-09T00:25:52.963Z,4.30
2019-02-09T00:28:21.732Z,4.30
2019-02-09T00:30:50.572Z,4.50
2019-02-09T00:33:19.860Z,4.40
2019-02-09T00:35:48.739Z,4.40
2019-02-09T00:38:17.611Z,4.50
2019-02-09T00:40:46.581Z,4.50
2019-02-09T00:43:15.456Z,4.50
2019-02-09T00:45:44.636Z,4.50
2019-02-09T00:48:13.484Z,4.40
2019-02-09T00:50:42.419Z,4.40
2019-02-09T00:53:11.392Z,4.40
2019-02-09T00:55:40.388Z,4.40
2019-02-09T00:58:09.603Z,4.40
2019-02-09T01:00:38.570Z,4.30
2019-02-09T01:03:07.544Z,4.30
2019-02-09T01:05:41.518Z,4.40
2019-02-09T01:08:10.606Z,4.30
2019-02-09T01:10:39.587Z,4.20
2019-02-09T01:13:08.717Z,4.00
2019-02-09T01:15:37.856Z,4.20
2019-02-09T01:18:07.112Z,4.20
2019-02-09T01:20:36.067Z,4.30
2019-02-09T01:23:06.603Z,4.20
2019-02-09T01:25:35.612Z,4.20
2019-02-09T01:28:05.063Z,4.20
2019-02-09T01:30:34.332Z,4.20
2019-02-09T01:33:03.366Z,4.30
2019-02-09T01:35:32.194Z,4.20
2019-02-09T01:38:01.212Z,4.30
2019-02-09T01:40:30.271Z,4.30
2019-02-09T01:42:59.163Z,4.40
2019-02-09T01:45:29.778Z,4.30
2019-02-09T01:47:58.692Z,4.20
2019-02-09T01:50:29.842Z,4.20
2019-02-09T01:52:58.937Z,4.10
2019-02-09T01:55:28.831Z,3.90
2019-02-09T01:57:58.042Z,3.90
2019-02-09T02:00:29.589Z,3.90
2019-02-09T02:02:59.492Z,3.90
2019-02-09T02:05:28.521Z,4.00
2019-02-09T02:07:57.738Z,3.90
2019-02-09T02:10:29.552Z,4.00
2019-02-09T02:12:59.231Z,4.00
2019-02-09T02:15:28.483Z,4.00
2019-02-09T02:17:57.831Z,3.90
2019-02-09T02:20:27.663Z,4.00
2019-02-09T02:22:56.640Z,4.10
2019-02-09T02:25:25.877Z,4.20
2019-02-09T02:27:55.046Z,4.20
2019-02-09T02:30:25.986Z,4.40
2019-02-09T02:32:54.952Z,4.50
2019-02-09T02:35:24.187Z,4.40
2019-02-09T02:37:53.632Z,4.50
2019-02-09T02:40:22.882Z,4.60
2019-02-09T02:42:52.109Z,4.60
2019-02-09T02:45:21.593Z,4.60
2019-02-09T02:47:50.990Z,4.70
2019-02-09T02:50:20.607Z,4.70
2019-02-09T02:52:49.821Z,4.70
2019-02-09T02:55:20.700Z,4.70
2019-02-09T02:57:51.383Z,4.70
2019-02-09T03:00:31.894Z,4.60
2019-02-09T03:02:53.499Z,4.50
2019-02-09T03:05:23.542Z,4.40
2019-02-09T03:07:53.310Z,4.30
2019-02-09T03:10:22.588Z,4.30
2019-02-09T03:12:51.661Z,4.40
2019-02-09T03:15:25.751Z,4.30
2019-02-09T03:17:54.811Z,4.30
2019-02-09T03:20:23.790Z,4.20
2019-02-09T03:22:52.693Z,4.10
2019-02-09T03:25:26.128Z,4.00
2019-02-09T03:27:55.371Z,4.00
2019-02-09T03:30:24.835Z,3.90
2019-02-09T03:32:53.775Z,3.90
2019-02-09T03:35:22.971Z,3.90
2019-02-09T03:37:52.155Z,3.80
2019-02-09T03:40:22.250Z,3.80
2019-02-09T03:42:51.472Z,3.70
2019-02-09T03:45:28.390Z,3.60
2019-02-09T03:47:58.000Z,3.50
2019-02-09T03:50:28.976Z,3.50
2019-02-09T03:52:58.053Z,3.50
2019-02-09T03:55:27.403Z,3.60
2019-02-09T03:57:56.981Z,3.40
2019-02-09T04:00:27.803Z,3.30
2019-02-09T04:02:58.466Z,3.30
2019-02-09T04:05:27.910Z,3.30
2019-02-09T04:07:57.480Z,3.30
2019-02-09T04:10:26.660Z,3.20
2019-02-09T04:12:55.811Z,3.30
2019-02-09T04:15:25.461Z,3.30
2019-02-09T04:17:55.048Z,3.30
2019-02-09T04:20:44.830Z,3.30
2019-02-09T04:23:13.731Z,3.20
2019-02-09T04:25:42.798Z,3.20
2019-02-09T04:28:11.798Z,3.30
2019-02-09T04:30:40.912Z,3.30
2019-02-09T04:33:10.248Z,3.30
2019-02-09T04:35:39.498Z,3.30
2019-02-09T04:38:08.508Z,3.40
2019-02-09T04:40:37.685Z,3.40
2019-02-09T04:43:07.755Z,3.50
2019-02-09T04:45:36.696Z,3.60
2019-02-09T04:48:06.137Z,3.70
2019-02-09T04:50:35.061Z,3.60
2019-02-09T04:53:04.503Z,3.70
2019-02-09T04:55:33.337Z,3.80
2019-02-09T04:58:02.251Z,3.90
2019-02-09T05:00:31.560Z,3.90
2019-02-09T05:03:00.475Z,3.80
2019-02-09T05:05:31.217Z,3.90
2019-02-09T05:08:00.381Z,4.00
2019-02-09T05:10:29.314Z,4.10
2019-02-09T05:12:58.498Z,4.10
2019-02-09T05:15:27.378Z,4.20
2019-02-09T05:17:56.346Z,4.20
2019-02-09T05:20:25.574Z,4.30
2019-02-09T05:22:55.191Z,4.30
2019-02-09T05:25:24.487Z,4.40
2019-02-09T05:27:54.226Z,4.40
2019-02-09T05:30:27.109Z,4.30
2019-02-09T05:32:56.588Z,4.30
2019-02-09T05:35:25.972Z,4.30
2019-02-09T05:37:54.853Z,4.30
2019-02-09T05:40:24.687Z,4.30
2019-02-09T05:42:53.723Z,4.30
2019-02-09T05:45:24.538Z,4.40
2019-02-09T05:47:53.733Z,4.40
2019-02-09T05:50:22.815Z,4.40
2019-02-09T05:52:51.739Z,4.40
2019-02-09T05:55:21.124Z,4.40
2019-02-09T05:57:50.508Z,4.30
2019-02-09T06:00:28.892Z,4.30
2019-02-09T06:02:57.927Z,4.30
2019-02-09T06:05:26.910Z,4.40
2019-02-09T06:07:56.087Z,4.30
2019-02-09T06:10:25.060Z,4.30
2019-02-09T06:12:53.991Z,4.30
2019-02-09T06:15:23.080Z,4.30
2019-02-09T06:17:51.908Z,4.30
2019-02-09T06:20:22.840Z,4.40
2019-02-09T06:22:51.622Z,4.40
2019-02-09T06:25:20.931Z,4.30
2019-02-09T06:27:49.889Z,4.20
2019-02-09T06:30:24.034Z,4.20
2019-02-09T06:32:53.302Z,4.20
2019-02-09T06:35:22.444Z,4.10
2019-02-09T06:37:51.489Z,4.10
2019-02-09T06:40:20.446Z,4.10
2019-02-09T06:42:49.405Z,4.20
2019-02-09T06:45:21.155Z,4.30
2019-02-09T06:47:50.071Z,4.30
2019-02-09T06:50:25.059Z,4.40
2019-02-09T06:52:54.079Z,4.50
2019-02-09T06:55:24.202Z,4.60
2019-02-09T06:57:53.152Z,4.70
2019-02-09T07:00:22.300Z,4.70
2019-02-09T07:02:51.196Z,4.70
2019-02-09T07:05:20.325Z,5.70
2019-02-09T07:07:49.336Z,5.90
2019-02-09T07:10:22.816Z,6.90
2019-02-09T07:12:51.844Z,6.90
2019-02-09T07:15:26.494Z,7.30
2019-02-09T07:17:55.736Z,7.60
2019-02-09T07:20:24.966Z,7.50
2019-02-09T07:22:54.401Z,7.50
2019-02-09T07:25:23.604Z,7.20
2019-02-09T07:27:53.033Z,7.60
2019-02-09T07:30:24.232Z,7.70
2019-02-09T07:32:53.510Z,7.60
2019-02-09T07:35:22.391Z,7.40
2019-02-09T07:37:51.672Z,6.70
2019-02-09T07:40:21.598Z,6.50
2019-02-09T07:42:50.517Z,6.60
2019-02-09T07:45:21.471Z,6.50
2019-02-09T07:47:50.595Z,6.90
2019-02-09T07:50:20.692Z,7.10
2019-02-09T07:52:49.582Z,7.40
2019-02-09T07:55:19.226Z,7.60
2019-02-09T07:57:48.417Z,7.50
2019-02-09T08:00:19.974Z,7.50
2019-02-09T08:02:49.815Z,7.50
2019-02-09T08:05:19.092Z,7.60
2019-02-09T08:07:48.188Z,7.60
2019-02-09T08:10:19.319Z,7.60
2019-02-09T08:12:48.705Z,7.60
2019-02-09T08:15:20.402Z,7.70
2019-02-09T08:17:49.443Z,7.70
2019-02-09T08:20:19.470Z,7.60
2019-02-09T08:22:48.471Z,7.60
2019-02-09T08:25:20.289Z,7.60
2019-02-09T08:27:49.737Z,7.60
2019-02-09T08:30:40.796Z,7.60
2019-02-09T08:33:10.909Z,7.70
2019-02-09T08:35:40.465Z,8.00
2019-02-09T08:38:11.112Z,8.30
2019-02-09T08:40:40.191Z,8.60
2019-02-09T08:43:09.770Z,9.40
2019-02-09T08:45:39.050Z,9.90
2019-02-09T08:48:09.462Z,10.30
2019-02-09T08:50:40.891Z,10.10
2019-02-09T08:53:09.835Z,9.50
2019-02-09T08:55:38.719Z,9.80
2019-02-09T08:58:08.322Z,10.30
2019-02-09T09:00:37.987Z,10.40
2019-02-09T09:03:07.037Z,10.80
2019-02-09T09:05:37.911Z,11.30
2019-02-09T09:08:06.989Z,10.90
2019-02-09T09:10:35.891Z,11.00
2019-02-09T09:13:04.962Z,11.20
2019-02-09T09:15:36.864Z,11.50
2019-02-09T09:18:06.415Z,12.10
2019-02-09T09:20:37.122Z,11.70
2019-02-09T09:23:06.361Z,11.20
2019-02-09T09:25:35.767Z,11.30
2019-02-09T09:28:06.203Z,11.00
2019-02-09T09:30:34.998Z,11.30
2019-02-09T09:33:04.478Z,11.90
2019-02-09T09:35:33.477Z,12.10
2019-02-09T09:38:02.443Z,11.80
2019-02-09T09:40:34.720Z,12.10
2019-02-09T09:43:05.740Z,12.10
2019-02-09T09:45:40.725Z,11.70
2019-02-09T09:48:12.058Z,11.80
2019-02-09T09:50:41.082Z,12.10
2019-02-09T09:53:10.559Z,12.10
2019-02-09T09:55:40.081Z,12.70
2019-02-09T09:58:09.217Z,13.60
2019-02-09T10:00:38.054Z,14.10
2019-02-09T10:03:07.066Z,14.40
2019-02-09T10:05:35.971Z,14.20
2019-02-09T10:08:06.580Z,13.40
2019-02-09T10:10:35.787Z,12.60
2019-02-09T10:13:06.812Z,13.00
2019-02-09T10:15:35.760Z,13.50
2019-02-09T10:18:05.543Z,13.40
2019-02-09T10:20:34.400Z,13.60
2019-02-09T10:23:03.521Z,13.60
2019-02-09T10:25:32.477Z,13.10
2019-02-09T10:28:01.451Z,13.20
2019-02-09T10:30:30.407Z,13.10
2019-02-09T10:32:59.952Z,12.30
2019-02-09T10:35:28.932Z,12.40
2019-02-09T10:37:57.840Z,12.50
2019-02-09T10:40:28.799Z,12.40
2019-02-09T10:42:58.587Z,12.70
2019-02-09T10:45:28.831Z,12.50
2019-02-09T10:47:58.071Z,12.60
2019-02-09T10:50:38.733Z,12.40
2019-02-09T10:53:07.955Z,12.40
2019-02-09T10:55:37.378Z,12.40
2019-02-09T10:58:07.652Z,13.20
2019-02-09T11:00:39.884Z,12.90
2019-02-09T11:03:08.897Z,12.90
2019-02-09T11:05:37.951Z,12.50
2019-02-09T11:08:07.417Z,12.80
2019-02-09T11:10:36.451Z,13.00
2019-02-09T11:13:06.390Z,12.50
2019-02-09T11:15:35.307Z,12.50
2019-02-09T11:18:05.944Z,12.40
2019-02-09T11:20:35.007Z,12.40
2019-02-09T11:23:04.878Z,12.80
2019-02-09T11:25:33.997Z,12.60
2019-02-09T11:28:03.274Z,12.50
2019-02-09T11:30:32.550Z,12.70
2019-02-09T11:33:02.604Z,12.60
2019-02-09T11:35:32.339Z,12.50
2019-02-09T11:38:01.344Z,12.10
2019-02-09T11:40:30.336Z,12.50
2019-02-09T11:42:59.531Z,12.90
2019-02-09T11:45:29.835Z,13.20
2019-02-09T11:47:58.897Z,13.10
2019-02-09T11:50:27.850Z,13.50
2019-02-09T11:52:56.795Z,13.70
2019-02-09T11:55:25.786Z,14.10
2019-02-09T11:57:54.636Z,13.90
2019-02-09T12:00:27.738Z,14.60
2019-02-09T12:03:02.773Z,15.30
2019-02-09T12:05:27.541Z,14.20
2019-02-09T12:07:56.567Z,13.60
2019-02-09T12:10:25.789Z,12.70
2019-02-09T12:12:54.951Z,13.50
2019-02-09T12:15:33.735Z,13.70
2019-02-09T12:18:02.686Z,13.00
2019-02-09T12:20:31.835Z,12.70
2019-02-09T12:23:00.716Z,11.70
2019-02-09T12:25:31.995Z,12.50
2019-02-09T12:28:00.851Z,11.80
2019-02-09T12:30:32.416Z,12.00
2019-02-09T12:33:01.731Z,11.70
2019-02-09T12:35:30.696Z,12.50
2019-02-09T12:37:59.587Z,13.10
2019-02-09T12:40:29.851Z,13.80
2019-02-09T12:42:59.310Z,13.60
2019-02-09T12:45:29.003Z,14.60
2019-02-09T12:47:57.887Z,15.30
2019-02-09T12:50:27.178Z,15.70
2019-02-09T12:52:56.457Z,15.20
2019-02-09T12:55:25.493Z,15.70
2019-02-09T12:57:54.449Z,15.80
2019-02-09T13:00:25.650Z,15.80
2019-02-09T13:02:54.983Z,15.20
2019-02-09T13:05:24.279Z,14.60
2019-02-09T13:07:53.264Z,14.10
2019-02-09T13:10:22.476Z,13.80
2019-02-09T13:12:52.127Z,13.00
2019-02-09T13:15:23.734Z,12.60
2019-02-09T13:17:52.807Z,12.80
2019-02-09T13:20:23.291Z,13.10
2019-02-09T13:22:53.236Z,14.50
2019-02-09T13:25:22.402Z,13.80
2019-02-09T13:27:51.465Z,13.20
2019-02-09T13:30:22.947Z,13.90
2019-02-09T13:32:51.913Z,14.30
2019-02-09T13:35:21.130Z,15.00
2019-02-09T13:37:50.019Z,15.70
2019-02-09T13:40:19.718Z,15.20
2019-02-09T13:42:49.027Z,15.90
2019-02-09T13:45:30.061Z,15.40
2019-02-09T13:47:59.280Z,14.70
2019-02-09T13:50:29.554Z,14.40
2019-02-09T13:52:58.516Z,14.10
2019-02-09T13:55:27.965Z,14.20
2019-02-09T13:57:56.848Z,15.80
2019-02-09T14:00:25.923Z,15.60
2019-02-09T14:02:55.409Z,15.40
2019-02-09T14:05:24.454Z,14.70
2019-02-09T14:07:53.614Z,15.20
2019-02-09T14:10:22.720Z,14.80
2019-02-09T14:12:51.738Z,14.40
2019-02-09T14:15:25.555Z,14.50
2019-02-09T14:17:54.523Z,14.40
2019-02-09T14:20:23.513Z,14.40
2019-02-09T14:22:52.661Z,13.30
2019-02-09T14:25:22.208Z,13.60
2019-02-09T14:27:53.575Z,14.20
2019-02-09T14:30:24.344Z,13.80
2019-02-09T14:32:53.608Z,13.60
2019-02-09T14:35:23.385Z,13.50
2019-02-09T14:37:52.856Z,13.40
2019-02-09T14:40:23.948Z,13.50
2019-02-09T14:42:53.122Z,14.00
2019-02-09T14:45:24.073Z,13.50
2019-02-09T14:47:53.052Z,13.10
2019-02-09T14:50:22.226Z,12.50
2019-02-09T14:52:51.174Z,11.90
2019-02-09T14:55:25.555Z,11.40
2019-02-09T14:57:54.565Z,11.00
2019-02-09T15:00:25.798Z,10.90
2019-02-09T15:02:54.944Z,10.80
2019-02-09T15:05:23.981Z,10.50
2019-02-09T15:07:53.012Z,10.50
2019-02-09T15:10:23.705Z,10.40
2019-02-09T15:12:52.679Z,10.30
2019-02-09T15:15:27.624Z,10.30
2019-02-09T15:17:56.500Z,10.20
2019-02-09T15:20:28.191Z,10.20
2019-02-09T15:22:57.195Z,10.20
2019-02-09T15:25:26.108Z,10.10
2019-02-09T15:27:55.367Z,9.90
2019-02-09T15:30:25.793Z,9.90
2019-02-09T15:32:54.821Z,9.90
2019-02-09T15:35:24.107Z,9.60
2019-02-09T15:37:53.462Z,9.70
2019-02-09T15:40:22.559Z,9.60
2019-02-09T15:42:51.419Z,9.50
2019-02-09T15:45:20.725Z,9.50
2019-02-09T15:47:51.879Z,9.40
2019-02-09T15:50:20.909Z,9.40
2019-02-09T15:52:50.312Z,9.30
2019-02-09T15:55:19.860Z,9.30
2019-02-09T15:57:51.475Z,9.20
2019-02-09T16:00:25.361Z,9.00
2019-02-09T16:02:55.451Z,9.10
2019-02-09T16:05:29.092Z,9.00
2019-02-09T16:07:58.139Z,9.00
2019-02-09T16:10:27.247Z,8.80
2019-02-09T16:12:56.059Z,8.80
2019-02-09T16:15:26.479Z,8.70
2019-02-09T16:17:55.777Z,8.60
2019-02-09T16:20:25.573Z,8.60
2019-02-09T16:22:54.831Z,8.50
2019-02-09T16:25:24.112Z,8.50
2019-02-09T16:27:55.105Z,8.50
2019-02-09T16:30:25.483Z,8.40
2019-02-09T16:32:55.428Z,8.50
2019-02-09T16:35:24.950Z,8.60
2019-02-09T16:37:54.083Z,8.40
2019-02-09T16:40:25.279Z,8.30
2019-02-09T16:42:54.122Z,8.40
2019-02-09T16:45:25.671Z,8.40
2019-02-09T16:47:54.614Z,8.40
2019-02-09T16:50:23.748Z,8.40
2019-02-09T16:52:52.629Z,8.40
2019-02-09T16:55:21.865Z,8.40
2019-02-09T16:57:51.611Z,8.30
2019-02-09T17:00:23.556Z,8.30
2019-02-09T17:02:52.319Z,8.30
2019-02-09T17:05:21.344Z,8.30
2019-02-09T17:07:50.847Z,8.20
2019-02-09T17:10:19.996Z,8.20
2019-02-09T17:12:48.990Z,8.20
2019-02-09T17:15:20.088Z,8.20
2019-02-09T17:17:48.996Z,8.10
2019-02-09T17:20:18.115Z,8.10
2019-02-09T17:22:47.160Z,8.10
2019-02-09T17:25:16.662Z,8.20
2019-02-09T17:27:45.639Z,8.20
2019-02-09T17:30:21.084Z,8.20
2019-02-09T17:32:50.054Z,8.40
2019-02-09T17:35:19.452Z,8.40
2019-02-09T17:37:48.629Z,8.30
2019-02-09T17:40:19.634Z,8.40
2019-02-09T17:42:53.275Z,8.40
2019-02-09T17:45:25.459Z,8.40
2019-02-09T17:47:54.447Z,8.40
2019-02-09T17:50:23.535Z,8.40
2019-02-09T17:52:52.693Z,8.40
2019-02-09T17:55:21.927Z,8.50
2019-02-09T17:57:50.835Z,8.50
2019-02-09T18:00:24.212Z,8.50
2019-02-09T18:02:53.062Z,8.50
2019-02-09T18:05:22.039Z,8.50
2019-02-09T18:07:50.920Z,8.40
2019-02-09T18:10:20.130Z,8.50
2019-02-09T18:12:49.160Z,8.50
2019-02-09T18:15:18.302Z,8.50
2019-02-09T18:17:47.125Z,8.40
2019-02-09T18:20:17.305Z,8.40
2019-02-09T18:22:46.578Z,8.30
2019-02-09T18:25:16.887Z,8.20
2019-02-09T18:27:47.459Z,8.30
2019-02-09T18:30:23.070Z,8.20
2019-02-09T18:32:53.333Z,8.20
2019-02-09T18:35:22.251Z,8.20
2019-02-09T18:37:51.192Z,8.10
2019-02-09T18:40:21.467Z,8.20
2019-02-09T18:42:50.518Z,8.10
2019-02-09T18:45:21.840Z,8.10
2019-02-09T18:47:51.324Z,8.20
2019-02-09T18:50:22.678Z,8.10
2019-02-09T18:52:51.730Z,8.00
2019-02-09T18:55:21.991Z,7.90
2019-02-09T18:57:51.673Z,7.90
2019-02-09T19:00:23.506Z,8.00
2019-02-09T19:02:52.690Z,8.00
2019-02-09T19:05:21.767Z,8.10
2019-02-09T19:07:51.060Z,8.10
2019-02-09T19:10:22.072Z,8.10
2019-02-09T19:12:51.139Z,8.10
2019-02-09T19:15:20.532Z,8.00
2019-02-09T19:17:49.474Z,7.90
2019-02-09T19:20:24.006Z,7.90
2019-02-09T19:22:52.945Z,7.90
2019-02-09T19:25:22.201Z,7.80
2019-02-09T19:27:51.148Z,8.00
2019-02-09T19:30:21.067Z,8.00
2019-02-09T19:32:50.615Z,8.00
2019-02-09T19:35:19.670Z,8.20
2019-02-09T19:37:49.048Z,8.10
2019-02-09T19:40:18.359Z,8.10
2019-02-09T19:42:48.016Z,8.10
2019-02-09T19:45:22.261Z,8.10
2019-02-09T19:47:51.286Z,8.00
2019-02-09T19:50:20.537Z,8.10
2019-02-09T19:52:49.800Z,8.20
2019-02-09T19:55:26.867Z,8.40
2019-02-09T19:57:55.981Z,8.30
2019-02-09T20:00:30.602Z,8.20
2019-02-09T20:02:59.874Z,8.20
2019-02-09T20:05:28.831Z,8.30
2019-02-09T20:07:57.683Z,8.20
2019-02-09T20:10:37.402Z,8.20
2019-02-09T20:13:07.298Z,8.00
2019-02-09T20:15:36.551Z,8.00
2019-02-09T20:18:06.386Z,8.10
2019-02-09T20:20:35.459Z,8.20
2019-02-09T20:23:04.680Z,8.20
2019-02-09T20:25:34.979Z,8.30
2019-02-09T20:28:04.118Z,8.20
2019-02-09T20:30:34.534Z,8.20
2019-02-09T20:33:03.888Z,8.20
2019-02-09T20:35:33.010Z,8.30
2019-02-09T20:38:01.968Z,8.20
2019-02-09T20:40:36.414Z,8.20
2019-02-09T20:43:06.354Z,8.20
2019-02-09T20:45:35.420Z,8.20
2019-02-09T20:48:06.044Z,8.20
2019-02-09T20:50:36.045Z,8.20
2019-02-09T20:53:05.890Z,8.10
2019-02-09T20:55:34.863Z,8.10
2019-02-09T20:58:05.797Z,8.10
2019-02-09T21:00:34.799Z,8.20
2019-02-09T21:03:03.862Z,8.10
2019-02-09T21:05:36.524Z,8.00
2019-02-09T21:08:04.728Z,8.00
2019-02-09T21:10:33.727Z,8.00
2019-02-09T21:13:02.712Z,8.00
2019-02-09T21:15:32.461Z,8.00
2019-02-09T21:18:04.346Z,8.00
2019-02-09T21:20:33.289Z,8.00
2019-02-09T21:23:02.150Z,8.00
2019-02-09T21:25:32.617Z,8.00
2019-02-09T21:28:01.650Z,8.10
2019-02-09T21:30:31.073Z,7.90
2019-02-09T21:33:00.432Z,7.90
2019-02-09T21:35:30.578Z,7.90
2019-02-09T21:37:59.512Z,7.80
2019-02-09T21:40:29.175Z,7.70
2019-02-09T21:42:58.515Z,7.70
2019-02-09T21:45:27.848Z,7.70
2019-02-09T21:47:56.928Z,7.60
2019-02-09T21:50:31.341Z,7.60
2019-02-09T21:53:00.447Z,7.60
2019-02-09T21:55:29.584Z,7.50
2019-02-09T21:57:58.582Z,7.40
2019-02-09T22:00:32.663Z,7.50
2019-02-09T22:03:01.570Z,7.50
2019-02-09T22:05:30.746Z,7.40
2019-02-09T22:07:59.805Z,7.40
2019-02-09T22:10:33.058Z,7.50
2019-02-09T22:12:59.528Z,7.40
2019-02-09T22:15:29.094Z,7.50
2019-02-09T22:17:58.395Z,7.40
2019-02-09T22:20:27.411Z,7.40
2019-02-09T22:22:56.470Z,7.40
2019-02-09T22:25:25.571Z,7.30
2019-02-09T22:27:54.559Z,7.30
2019-02-09T22:30:27.900Z,7.20
2019-02-09T22:32:57.526Z,7.20
2019-02-09T22:35:27.283Z,7.20
2019-02-09T22:37:57.429Z,7.30
2019-02-09T22:40:31.059Z,7.20
2019-02-09T22:43:00.067Z,7.30
2019-02-09T22:45:29.103Z,7.20
2019-02-09T22:47:58.517Z,7.10
2019-02-09T22:50:29.700Z,7.20
2019-02-09T22:52:58.851Z,7.20
2019-02-09T22:55:27.845Z,7.20
2019-02-09T22:57:56.855Z,7.20
2019-02-09T23:01:04.490Z,7.30
2019-02-09T23:03:58.853Z,7.20
2019-02-09T23:06:53.963Z,7.30
2019-02-09T23:09:25.307Z,7.20
2019-02-09T23:11:54.345Z,7.20
2019-02-09T23:14:23.321Z,7.20
2019-02-09T23:16:52.342Z,7.30
2019-02-09T23:19:21.459Z,7.30
2019-02-09T23:21:50.313Z,7.30
2019-02-09T23:24:19.248Z,7.30
2019-02-09T23:26:48.515Z,7.40
2019-02-09T23:29:17.287Z,7.40
2019-02-09T23:31:46.066Z,7.40
2019-02-09T23:34:15.137Z,7.50
2019-02-09T23:36:44.059Z,7.40
2019-02-09T23:39:13.092Z,7.40
2019-02-09T23:41:41.976Z,7.30
2019-02-09T23:44:10.843Z,7.40
2019-02-09T23:46:39.677Z,7.40
2019-02-09T23:49:08.566Z,7.40
2019-02-09T23:51:37.601Z,7.40
2019-02-09T23:54:06.623Z,7.40
2019-02-09T23:56:35.516Z,7.30
2019-02-09T23:59:04.290Z,7.40
